sensor_id;sensor_type;location;lat;lon;timestamp;P1;durP1;ratioP1;P2;durP2;ratioP2
75386;SDS011;63966;47.914;22.266;2023-09-07T00:02:16;7.75;;;3.53;;
75386;SDS011;63966;47.914;22.266;2023-09-07T00:05:32;8.37;;;3.30;;
75386;SDS011;63966;47.914;22.266;2023-09-07T00:08:36;8.57;;;3.53;;
75386;SDS011;63966;47.914;22.266;2023-09-07T00:11:39;6.50;;;3.03;;
75386;SDS011;63966;47.914;22.266;2023-09-07T00:14:43;6.32;;;3.15;;
75386;SDS011;63966;47.914;22.266;2023-09-07T00:17:47;7.38;;;3.25;;
75386;SDS011;63966;47.914;22.266;2023-09-07T00:20:51;7.50;;;3.70;;
75386;SDS011;63966;47.914;22.266;2023-09-07T00:23:55;6.80;;;3.27;;
75386;SDS011;63966;47.914;22.266;2023-09-07T00:26:58;8.15;;;3.50;;
75386;SDS011;63966;47.914;22.266;2023-09-07T00:30:02;7.40;;;3.67;;
75386;SDS011;63966;47.914;22.266;2023-09-07T00:33:11;6.68;;;3.13;;
75386;SDS011;63966;47.914;22.266;2023-09-07T00:36:14;7.60;;;3.43;;
75386;SDS011;63966;47.914;22.266;2023-09-07T00:39:18;10.23;;;3.37;;
75386;SDS011;63966;47.914;22.266;2023-09-07T00:42:21;6.68;;;3.17;;
75386;SDS011;63966;47.914;22.266;2023-09-07T00:45:25;8.15;;;3.70;;
75386;SDS011;63966;47.914;22.266;2023-09-07T00:48:29;6.10;;;2.83;;
75386;SDS011;63966;47.914;22.266;2023-09-07T00:51:33;7.90;;;3.30;;
75386;SDS011;63966;47.914;22.266;2023-09-07T00:54:37;7.10;;;2.93;;
75386;SDS011;63966;47.914;22.266;2023-09-07T00:57:43;6.32;;;2.97;;
75386;SDS011;63966;47.914;22.266;2023-09-07T01:00:46;6.22;;;3.13;;
75386;SDS011;63966;47.914;22.266;2023-09-07T01:03:50;9.57;;;2.92;;
75386;SDS011;63966;47.914;22.266;2023-09-07T01:07:00;9.73;;;3.30;;
75386;SDS011;63966;47.914;22.266;2023-09-07T01:10:09;6.20;;;2.67;;
75386;SDS011;63966;47.914;22.266;2023-09-07T01:13:13;7.13;;;2.70;;
75386;SDS011;63966;47.914;22.266;2023-09-07T01:16:16;6.75;;;2.90;;
75386;SDS011;63966;47.914;22.266;2023-09-07T01:19:20;8.25;;;3.60;;
75386;SDS011;63966;47.914;22.266;2023-09-07T01:22:23;7.83;;;3.37;;
75386;SDS011;63966;47.914;22.266;2023-09-07T01:25:27;8.10;;;2.93;;
75386;SDS011;63966;47.914;22.266;2023-09-07T01:28:31;8.30;;;3.50;;
75386;SDS011;63966;47.914;22.266;2023-09-07T01:31:35;6.40;;;3.28;;
75386;SDS011;63966;47.914;22.266;2023-09-07T01:34:40;6.38;;;3.05;;
75386;SDS011;63966;47.914;22.266;2023-09-07T01:37:44;7.77;;;3.37;;
75386;SDS011;63966;47.914;22.266;2023-09-07T01:40:47;9.00;;;3.20;;
75386;SDS011;63966;47.914;22.266;2023-09-07T01:43:51;7.00;;;3.35;;
75386;SDS011;63966;47.914;22.266;2023-09-07T01:46:55;7.68;;;3.13;;
75386;SDS011;63966;47.914;22.266;2023-09-07T01:49:59;7.05;;;3.08;;
75386;SDS011;63966;47.914;22.266;2023-09-07T01:53:03;8.63;;;3.33;;
75386;SDS011;63966;47.914;22.266;2023-09-07T01:56:06;11.33;;;5.83;;
75386;SDS011;63966;47.914;22.266;2023-09-07T01:59:10;14.63;;;6.82;;
75386;SDS011;63966;47.914;22.266;2023-09-07T02:02:14;7.43;;;3.92;;
75386;SDS011;63966;47.914;22.266;2023-09-07T02:05:17;9.13;;;3.88;;
75386;SDS011;63966;47.914;22.266;2023-09-07T02:08:21;11.37;;;5.57;;
75386;SDS011;63966;47.914;22.266;2023-09-07T02:11:24;14.93;;;6.47;;
75386;SDS011;63966;47.914;22.266;2023-09-07T02:14:28;11.48;;;6.18;;
75386;SDS011;63966;47.914;22.266;2023-09-07T02:17:31;15.25;;;6.13;;
75386;SDS011;63966;47.914;22.266;2023-09-07T02:20:35;11.35;;;6.53;;
75386;SDS011;63966;47.914;22.266;2023-09-07T02:23:38;11.97;;;5.63;;
75386;SDS011;63966;47.914;22.266;2023-09-07T02:26:43;12.67;;;6.43;;
75386;SDS011;63966;47.914;22.266;2023-09-07T02:29:48;10.80;;;5.82;;
75386;SDS011;63966;47.914;22.266;2023-09-07T02:32:52;11.38;;;4.78;;
75386;SDS011;63966;47.914;22.266;2023-09-07T02:35:55;10.98;;;5.03;;
75386;SDS011;63966;47.914;22.266;2023-09-07T02:38:59;11.03;;;4.53;;
75386;SDS011;63966;47.914;22.266;2023-09-07T02:42:04;10.47;;;4.40;;
75386;SDS011;63966;47.914;22.266;2023-09-07T02:45:09;13.30;;;5.30;;
75386;SDS011;63966;47.914;22.266;2023-09-07T02:48:14;12.88;;;5.15;;
75386;SDS011;63966;47.914;22.266;2023-09-07T02:51:18;8.73;;;4.32;;
75386;SDS011;63966;47.914;22.266;2023-09-07T02:54:22;9.50;;;4.10;;
75386;SDS011;63966;47.914;22.266;2023-09-07T02:57:26;10.00;;;4.00;;
75386;SDS011;63966;47.914;22.266;2023-09-07T03:00:29;9.93;;;4.88;;
75386;SDS011;63966;47.914;22.266;2023-09-07T03:03:34;8.35;;;4.13;;
75386;SDS011;63966;47.914;22.266;2023-09-07T03:06:39;9.50;;;4.35;;
75386;SDS011;63966;47.914;22.266;2023-09-07T03:09:43;8.70;;;4.30;;
75386;SDS011;63966;47.914;22.266;2023-09-07T03:12:47;8.80;;;4.43;;
75386;SDS011;63966;47.914;22.266;2023-09-07T03:15:53;7.47;;;3.90;;
75386;SDS011;63966;47.914;22.266;2023-09-07T03:18:57;11.82;;;5.00;;
75386;SDS011;63966;47.914;22.266;2023-09-07T03:22:00;8.85;;;4.43;;
75386;SDS011;63966;47.914;22.266;2023-09-07T03:25:05;14.63;;;4.77;;
75386;SDS011;63966;47.914;22.266;2023-09-07T03:28:10;7.77;;;3.67;;
75386;SDS011;63966;47.914;22.266;2023-09-07T03:31:14;9.35;;;4.07;;
75386;SDS011;63966;47.914;22.266;2023-09-07T03:34:17;10.40;;;4.78;;
75386;SDS011;63966;47.914;22.266;2023-09-07T03:37:22;11.70;;;5.00;;
75386;SDS011;63966;47.914;22.266;2023-09-07T03:40:25;13.23;;;5.20;;
75386;SDS011;63966;47.914;22.266;2023-09-07T03:43:29;15.20;;;6.77;;
75386;SDS011;63966;47.914;22.266;2023-09-07T03:46:32;12.45;;;4.35;;
75386;SDS011;63966;47.914;22.266;2023-09-07T03:49:36;9.52;;;5.55;;
75386;SDS011;63966;47.914;22.266;2023-09-07T03:52:40;10.88;;;4.78;;
75386;SDS011;63966;47.914;22.266;2023-09-07T03:55:44;12.10;;;6.80;;
75386;SDS011;63966;47.914;22.266;2023-09-07T03:58:51;13.80;;;7.30;;
75386;SDS011;63966;47.914;22.266;2023-09-07T04:01:54;14.43;;;7.80;;
75386;SDS011;63966;47.914;22.266;2023-09-07T04:04:58;12.02;;;6.75;;
75386;SDS011;63966;47.914;22.266;2023-09-07T04:08:05;14.82;;;7.50;;
75386;SDS011;63966;47.914;22.266;2023-09-07T04:11:09;14.93;;;6.83;;
75386;SDS011;63966;47.914;22.266;2023-09-07T04:14:13;12.70;;;6.37;;
75386;SDS011;63966;47.914;22.266;2023-09-07T04:17:16;15.93;;;6.20;;
75386;SDS011;63966;47.914;22.266;2023-09-07T04:20:20;19.27;;;7.00;;
75386;SDS011;63966;47.914;22.266;2023-09-07T04:23:25;12.15;;;5.72;;
75386;SDS011;63966;47.914;22.266;2023-09-07T04:26:28;14.10;;;6.67;;
75386;SDS011;63966;47.914;22.266;2023-09-07T04:29:32;10.93;;;5.47;;
75386;SDS011;63966;47.914;22.266;2023-09-07T04:32:36;9.88;;;4.10;;
75386;SDS011;63966;47.914;22.266;2023-09-07T04:35:40;9.95;;;3.72;;
75386;SDS011;63966;47.914;22.266;2023-09-07T04:38:44;7.38;;;4.00;;
75386;SDS011;63966;47.914;22.266;2023-09-07T04:41:47;12.47;;;3.90;;
75386;SDS011;63966;47.914;22.266;2023-09-07T04:44:51;9.23;;;3.63;;
75386;SDS011;63966;47.914;22.266;2023-09-07T04:47:55;10.05;;;4.07;;
75386;SDS011;63966;47.914;22.266;2023-09-07T04:50:59;15.93;;;4.50;;
75386;SDS011;63966;47.914;22.266;2023-09-07T04:54:03;10.85;;;5.05;;
75386;SDS011;63966;47.914;22.266;2023-09-07T04:57:06;10.87;;;5.23;;
75386;SDS011;63966;47.914;22.266;2023-09-07T05:00:10;18.43;;;6.73;;
75386;SDS011;63966;47.914;22.266;2023-09-07T05:03:15;13.02;;;6.00;;
75386;SDS011;63966;47.914;22.266;2023-09-07T05:06:19;13.75;;;6.75;;
75386;SDS011;63966;47.914;22.266;2023-09-07T05:09:26;13.15;;;7.03;;
75386;SDS011;63966;47.914;22.266;2023-09-07T05:12:32;17.00;;;7.33;;
75386;SDS011;63966;47.914;22.266;2023-09-07T05:15:36;16.00;;;6.90;;
75386;SDS011;63966;47.914;22.266;2023-09-07T05:18:40;13.93;;;7.72;;
75386;SDS011;63966;47.914;22.266;2023-09-07T05:21:45;14.43;;;7.75;;
75386;SDS011;63966;47.914;22.266;2023-09-07T05:24:49;19.33;;;7.78;;
75386;SDS011;63966;47.914;22.266;2023-09-07T05:27:52;15.23;;;8.37;;
75386;SDS011;63966;47.914;22.266;2023-09-07T05:30:56;15.63;;;8.47;;
75386;SDS011;63966;47.914;22.266;2023-09-07T05:33:59;18.67;;;8.18;;
75386;SDS011;63966;47.914;22.266;2023-09-07T05:37:04;14.20;;;6.53;;
75386;SDS011;63966;47.914;22.266;2023-09-07T05:40:08;15.18;;;6.70;;
75386;SDS011;63966;47.914;22.266;2023-09-07T05:43:12;13.07;;;6.97;;
75386;SDS011;63966;47.914;22.266;2023-09-07T05:46:15;14.30;;;6.50;;
75386;SDS011;63966;47.914;22.266;2023-09-07T05:49:19;13.38;;;5.68;;
75386;SDS011;63966;47.914;22.266;2023-09-07T05:52:23;11.70;;;5.80;;
75386;SDS011;63966;47.914;22.266;2023-09-07T05:55:26;9.82;;;5.50;;
75386;SDS011;63966;47.914;22.266;2023-09-07T05:58:30;10.03;;;5.70;;
75386;SDS011;63966;47.914;22.266;2023-09-07T06:01:35;9.20;;;5.37;;
75386;SDS011;63966;47.914;22.266;2023-09-07T06:04:38;9.50;;;5.47;;
75386;SDS011;63966;47.914;22.266;2023-09-07T06:07:43;10.77;;;5.28;;
75386;SDS011;63966;47.914;22.266;2023-09-07T06:10:48;10.13;;;5.05;;
75386;SDS011;63966;47.914;22.266;2023-09-07T06:13:51;11.23;;;5.77;;
75386;SDS011;63966;47.914;22.266;2023-09-07T06:16:55;11.13;;;5.63;;
75386;SDS011;63966;47.914;22.266;2023-09-07T06:19:59;13.48;;;6.00;;
75386;SDS011;63966;47.914;22.266;2023-09-07T06:23:03;10.85;;;5.88;;
75386;SDS011;63966;47.914;22.266;2023-09-07T06:26:07;9.48;;;5.43;;
75386;SDS011;63966;47.914;22.266;2023-09-07T06:29:10;13.13;;;6.03;;
75386;SDS011;63966;47.914;22.266;2023-09-07T06:32:14;9.97;;;5.53;;
75386;SDS011;63966;47.914;22.266;2023-09-07T06:35:18;10.68;;;5.93;;
75386;SDS011;63966;47.914;22.266;2023-09-07T06:38:22;13.25;;;6.35;;
75386;SDS011;63966;47.914;22.266;2023-09-07T06:41:26;9.88;;;5.70;;
75386;SDS011;63966;47.914;22.266;2023-09-07T06:44:30;10.70;;;5.90;;
75386;SDS011;63966;47.914;22.266;2023-09-07T06:47:36;11.60;;;5.87;;
75386;SDS011;63966;47.914;22.266;2023-09-07T06:50:41;12.10;;;5.80;;
75386;SDS011;63966;47.914;22.266;2023-09-07T06:53:45;10.02;;;6.10;;
75386;SDS011;63966;47.914;22.266;2023-09-07T06:57:00;10.43;;;5.82;;
75386;SDS011;63966;47.914;22.266;2023-09-07T07:00:04;10.90;;;6.28;;
75386;SDS011;63966;47.914;22.266;2023-09-07T07:03:10;10.40;;;5.53;;
75386;SDS011;63966;47.914;22.266;2023-09-07T07:06:14;10.68;;;6.35;;
75386;SDS011;63966;47.914;22.266;2023-09-07T07:09:17;9.10;;;5.50;;
75386;SDS011;63966;47.914;22.266;2023-09-07T07:12:21;11.05;;;6.30;;
75386;SDS011;63966;47.914;22.266;2023-09-07T07:15:25;9.60;;;5.63;;
75386;SDS011;63966;47.914;22.266;2023-09-07T07:18:29;13.23;;;6.00;;
75386;SDS011;63966;47.914;22.266;2023-09-07T07:21:33;9.98;;;5.80;;
75386;SDS011;63966;47.914;22.266;2023-09-07T07:24:40;11.13;;;6.25;;
75386;SDS011;63966;47.914;22.266;2023-09-07T07:27:43;10.98;;;6.05;;
75386;SDS011;63966;47.914;22.266;2023-09-07T07:30:48;11.02;;;5.78;;
75386;SDS011;63966;47.914;22.266;2023-09-07T07:33:55;10.73;;;5.30;;
75386;SDS011;63966;47.914;22.266;2023-09-07T07:42:08;9.43;;;5.45;;
75386;SDS011;63966;47.914;22.266;2023-09-07T07:45:12;8.90;;;5.07;;
75386;SDS011;63966;47.914;22.266;2023-09-07T07:48:16;9.27;;;5.57;;
75386;SDS011;63966;47.914;22.266;2023-09-07T07:51:20;10.33;;;5.80;;
75386;SDS011;63966;47.914;22.266;2023-09-07T07:54:26;7.38;;;4.43;;
75386;SDS011;63966;47.914;22.266;2023-09-07T07:57:33;11.10;;;5.28;;
75386;SDS011;63966;47.914;22.266;2023-09-07T08:00:37;8.30;;;4.80;;
75386;SDS011;63966;47.914;22.266;2023-09-07T08:03:43;9.93;;;4.85;;
75386;SDS011;63966;47.914;22.266;2023-09-07T08:06:47;11.40;;;4.93;;
75386;SDS011;63966;47.914;22.266;2023-09-07T08:09:51;8.38;;;5.30;;
75386;SDS011;63966;47.914;22.266;2023-09-07T08:12:55;8.57;;;4.85;;
75386;SDS011;63966;47.914;22.266;2023-09-07T08:16:02;8.85;;;5.07;;
75386;SDS011;63966;47.914;22.266;2023-09-07T08:19:10;8.60;;;4.65;;
75386;SDS011;63966;47.914;22.266;2023-09-07T08:22:14;8.17;;;4.80;;
75386;SDS011;63966;47.914;22.266;2023-09-07T08:25:19;9.90;;;4.80;;
75386;SDS011;63966;47.914;22.266;2023-09-07T08:28:23;9.35;;;4.53;;
75386;SDS011;63966;47.914;22.266;2023-09-07T08:31:27;9.07;;;4.78;;
75386;SDS011;63966;47.914;22.266;2023-09-07T08:38:52;8.67;;;4.27;;
75386;SDS011;63966;47.914;22.266;2023-09-07T08:41:56;10.73;;;4.55;;
75386;SDS011;63966;47.914;22.266;2023-09-07T08:45:03;7.88;;;4.20;;
75386;SDS011;63966;47.914;22.266;2023-09-07T08:48:10;8.65;;;4.18;;
75386;SDS011;63966;47.914;22.266;2023-09-07T08:51:16;9.23;;;4.47;;
75386;SDS011;63966;47.914;22.266;2023-09-07T08:54:21;7.53;;;3.87;;
75386;SDS011;63966;47.914;22.266;2023-09-07T08:57:26;8.63;;;4.18;;
75386;SDS011;63966;47.914;22.266;2023-09-07T09:00:31;8.20;;;4.22;;
75386;SDS011;63966;47.914;22.266;2023-09-07T09:03:36;7.95;;;4.38;;
75386;SDS011;63966;47.914;22.266;2023-09-07T09:06:39;7.93;;;4.33;;
75386;SDS011;63966;47.914;22.266;2023-09-07T09:09:43;9.90;;;4.37;;
75386;SDS011;63966;47.914;22.266;2023-09-07T09:12:46;9.50;;;4.57;;
75386;SDS011;63966;47.914;22.266;2023-09-07T09:15:50;10.80;;;4.28;;
75386;SDS011;63966;47.914;22.266;2023-09-07T09:18:54;8.07;;;4.45;;
75386;SDS011;63966;47.914;22.266;2023-09-07T09:22:00;10.43;;;4.22;;
75386;SDS011;63966;47.914;22.266;2023-09-07T09:25:04;7.90;;;3.87;;
75386;SDS011;63966;47.914;22.266;2023-09-07T09:28:09;7.93;;;4.40;;
75386;SDS011;63966;47.914;22.266;2023-09-07T09:31:13;8.35;;;4.10;;
75386;SDS011;63966;47.914;22.266;2023-09-07T09:34:17;7.15;;;3.80;;
75386;SDS011;63966;47.914;22.266;2023-09-07T09:37:22;9.63;;;4.50;;
75386;SDS011;63966;47.914;22.266;2023-09-07T09:40:27;7.03;;;4.17;;
75386;SDS011;63966;47.914;22.266;2023-09-07T09:43:32;9.10;;;4.05;;
75386;SDS011;63966;47.914;22.266;2023-09-07T09:46:35;8.48;;;4.47;;
75386;SDS011;63966;47.914;22.266;2023-09-07T09:49:42;7.43;;;4.20;;
75386;SDS011;63966;47.914;22.266;2023-09-07T09:52:46;8.02;;;4.03;;
75386;SDS011;63966;47.914;22.266;2023-09-07T09:55:50;8.90;;;4.27;;
75386;SDS011;63966;47.914;22.266;2023-09-07T09:58:55;6.57;;;3.70;;
75386;SDS011;63966;47.914;22.266;2023-09-07T10:01:58;7.88;;;4.05;;
75386;SDS011;63966;47.914;22.266;2023-09-07T10:05:03;7.88;;;4.13;;
75386;SDS011;63966;47.914;22.266;2023-09-07T10:08:11;7.65;;;3.83;;
75386;SDS011;63966;47.914;22.266;2023-09-07T10:11:16;8.27;;;4.10;;
75386;SDS011;63966;47.914;22.266;2023-09-07T10:14:38;9.25;;;4.32;;
75386;SDS011;63966;47.914;22.266;2023-09-07T10:17:43;8.02;;;3.88;;
75386;SDS011;63966;47.914;22.266;2023-09-07T10:20:56;19.52;;;4.43;;
75386;SDS011;63966;47.914;22.266;2023-09-07T10:24:00;6.35;;;3.80;;
75386;SDS011;63966;47.914;22.266;2023-09-07T10:27:08;29.80;;;4.83;;
75386;SDS011;63966;47.914;22.266;2023-09-07T10:30:13;7.93;;;4.05;;
75386;SDS011;63966;47.914;22.266;2023-09-07T10:33:25;8.35;;;3.47;;
75386;SDS011;63966;47.914;22.266;2023-09-07T10:36:29;8.20;;;3.63;;
75386;SDS011;63966;47.914;22.266;2023-09-07T10:39:32;7.82;;;3.80;;
75386;SDS011;63966;47.914;22.266;2023-09-07T10:42:36;6.60;;;4.00;;
75386;SDS011;63966;47.914;22.266;2023-09-07T10:45:43;9.27;;;4.00;;
75386;SDS011;63966;47.914;22.266;2023-09-07T10:48:52;11.63;;;3.80;;
75386;SDS011;63966;47.914;22.266;2023-09-07T10:51:56;8.00;;;3.75;;
75386;SDS011;63966;47.914;22.266;2023-09-07T10:54:59;7.50;;;3.80;;
75386;SDS011;63966;47.914;22.266;2023-09-07T10:58:03;5.83;;;3.20;;
75386;SDS011;63966;47.914;22.266;2023-09-07T11:01:07;7.20;;;3.50;;
75386;SDS011;63966;47.914;22.266;2023-09-07T11:04:11;6.60;;;3.88;;
75386;SDS011;63966;47.914;22.266;2023-09-07T11:07:15;6.80;;;3.75;;
75386;SDS011;63966;47.914;22.266;2023-09-07T11:10:19;7.38;;;3.72;;
75386;SDS011;63966;47.914;22.266;2023-09-07T11:13:23;6.83;;;3.60;;
75386;SDS011;63966;47.914;22.266;2023-09-07T11:16:28;8.20;;;3.42;;
75386;SDS011;63966;47.914;22.266;2023-09-07T11:19:33;7.72;;;3.35;;
75386;SDS011;63966;47.914;22.266;2023-09-07T11:22:36;6.55;;;3.40;;
75386;SDS011;63966;47.914;22.266;2023-09-07T11:26:00;8.57;;;3.73;;
75386;SDS011;63966;47.914;22.266;2023-09-07T11:29:06;7.60;;;3.83;;
75386;SDS011;63966;47.914;22.266;2023-09-07T11:32:10;8.10;;;3.10;;
75386;SDS011;63966;47.914;22.266;2023-09-07T11:35:15;7.00;;;3.80;;
75386;SDS011;63966;47.914;22.266;2023-09-07T11:38:19;8.55;;;3.78;;
75386;SDS011;63966;47.914;22.266;2023-09-07T11:41:22;11.00;;;3.65;;
75386;SDS011;63966;47.914;22.266;2023-09-07T11:44:26;7.03;;;3.50;;
75386;SDS011;63966;47.914;22.266;2023-09-07T11:47:29;5.72;;;3.17;;
75386;SDS011;63966;47.914;22.266;2023-09-07T11:50:33;8.30;;;3.95;;
75386;SDS011;63966;47.914;22.266;2023-09-07T11:53:37;7.15;;;3.08;;
75386;SDS011;63966;47.914;22.266;2023-09-07T11:56:41;8.45;;;4.03;;
75386;SDS011;63966;47.914;22.266;2023-09-07T11:59:46;7.73;;;3.53;;
75386;SDS011;63966;47.914;22.266;2023-09-07T12:03:00;7.82;;;3.50;;
75386;SDS011;63966;47.914;22.266;2023-09-07T12:06:03;9.07;;;3.90;;
75386;SDS011;63966;47.914;22.266;2023-09-07T12:09:07;7.38;;;4.15;;
75386;SDS011;63966;47.914;22.266;2023-09-07T12:12:11;11.18;;;4.28;;
75386;SDS011;63966;47.914;22.266;2023-09-07T12:15:15;10.60;;;3.93;;
75386;SDS011;63966;47.914;22.266;2023-09-07T12:18:19;12.15;;;3.88;;
75386;SDS011;63966;47.914;22.266;2023-09-07T12:21:23;7.22;;;3.90;;
75386;SDS011;63966;47.914;22.266;2023-09-07T12:24:27;7.03;;;3.78;;
75386;SDS011;63966;47.914;22.266;2023-09-07T12:27:31;7.38;;;4.18;;
75386;SDS011;63966;47.914;22.266;2023-09-07T12:30:45;7.20;;;3.50;;
75386;SDS011;63966;47.914;22.266;2023-09-07T12:33:49;8.23;;;3.92;;
75386;SDS011;63966;47.914;22.266;2023-09-07T12:36:53;9.02;;;3.22;;
75386;SDS011;63966;47.914;22.266;2023-09-07T12:39:56;8.98;;;3.63;;
75386;SDS011;63966;47.914;22.266;2023-09-07T12:43:00;6.82;;;3.60;;
75386;SDS011;63966;47.914;22.266;2023-09-07T12:46:03;7.67;;;4.00;;
75386;SDS011;63966;47.914;22.266;2023-09-07T12:49:07;8.23;;;3.63;;
75386;SDS011;63966;47.914;22.266;2023-09-07T12:52:11;7.65;;;4.13;;
75386;SDS011;63966;47.914;22.266;2023-09-07T12:55:15;6.22;;;3.42;;
75386;SDS011;63966;47.914;22.266;2023-09-07T12:58:20;7.28;;;3.63;;
75386;SDS011;63966;47.914;22.266;2023-09-07T13:01:24;7.83;;;3.80;;
75386;SDS011;63966;47.914;22.266;2023-09-07T13:04:28;9.38;;;3.67;;
75386;SDS011;63966;47.914;22.266;2023-09-07T13:07:34;11.40;;;4.63;;
75386;SDS011;63966;47.914;22.266;2023-09-07T13:10:37;8.50;;;3.78;;
75386;SDS011;63966;47.914;22.266;2023-09-07T13:13:42;8.13;;;3.80;;
75386;SDS011;63966;47.914;22.266;2023-09-07T13:16:45;8.03;;;3.93;;
75386;SDS011;63966;47.914;22.266;2023-09-07T13:19:49;7.13;;;3.72;;
75386;SDS011;63966;47.914;22.266;2023-09-07T13:22:53;8.48;;;4.00;;
75386;SDS011;63966;47.914;22.266;2023-09-07T13:25:57;9.70;;;3.97;;
75386;SDS011;63966;47.914;22.266;2023-09-07T13:29:02;8.60;;;4.38;;
75386;SDS011;63966;47.914;22.266;2023-09-07T13:32:06;8.97;;;4.37;;
75386;SDS011;63966;47.914;22.266;2023-09-07T13:35:09;9.15;;;3.80;;
75386;SDS011;63966;47.914;22.266;2023-09-07T13:38:13;9.27;;;4.03;;
75386;SDS011;63966;47.914;22.266;2023-09-07T13:41:16;16.25;;;4.15;;
75386;SDS011;63966;47.914;22.266;2023-09-07T13:44:20;37.63;;;7.20;;
75386;SDS011;63966;47.914;22.266;2023-09-07T13:47:24;7.03;;;3.80;;
75386;SDS011;63966;47.914;22.266;2023-09-07T13:50:28;8.20;;;3.83;;
75386;SDS011;63966;47.914;22.266;2023-09-07T13:53:32;8.25;;;4.15;;
75386;SDS011;63966;47.914;22.266;2023-09-07T13:56:36;11.15;;;4.30;;
75386;SDS011;63966;47.914;22.266;2023-09-07T13:59:41;11.25;;;4.53;;
75386;SDS011;63966;47.914;22.266;2023-09-07T14:02:44;7.00;;;3.73;;
75386;SDS011;63966;47.914;22.266;2023-09-07T14:05:48;8.07;;;4.15;;
75386;SDS011;63966;47.914;22.266;2023-09-07T14:08:52;9.68;;;3.55;;
75386;SDS011;63966;47.914;22.266;2023-09-07T14:11:55;7.40;;;3.40;;
75386;SDS011;63966;47.914;22.266;2023-09-07T14:14:58;10.07;;;3.72;;
75386;SDS011;63966;47.914;22.266;2023-09-07T14:18:02;8.23;;;3.63;;
75386;SDS011;63966;47.914;22.266;2023-09-07T14:21:06;8.45;;;3.90;;
75386;SDS011;63966;47.914;22.266;2023-09-07T14:24:09;7.15;;;4.00;;
75386;SDS011;63966;47.914;22.266;2023-09-07T14:27:13;6.90;;;3.75;;
75386;SDS011;63966;47.914;22.266;2023-09-07T14:30:16;9.18;;;3.55;;
75386;SDS011;63966;47.914;22.266;2023-09-07T14:33:20;7.50;;;3.90;;
75386;SDS011;63966;47.914;22.266;2023-09-07T14:36:23;9.00;;;3.72;;
75386;SDS011;63966;47.914;22.266;2023-09-07T14:39:27;6.15;;;3.40;;
75386;SDS011;63966;47.914;22.266;2023-09-07T14:42:30;10.02;;;3.60;;
75386;SDS011;63966;47.914;22.266;2023-09-07T14:45:34;7.28;;;3.95;;
75386;SDS011;63966;47.914;22.266;2023-09-07T14:48:37;7.80;;;3.90;;
75386;SDS011;63966;47.914;22.266;2023-09-07T14:51:40;7.88;;;3.80;;
75386;SDS011;63966;47.914;22.266;2023-09-07T14:54:44;9.65;;;4.18;;
75386;SDS011;63966;47.914;22.266;2023-09-07T14:57:49;8.55;;;3.80;;
75386;SDS011;63966;47.914;22.266;2023-09-07T15:00:53;8.38;;;4.00;;
75386;SDS011;63966;47.914;22.266;2023-09-07T15:03:57;7.67;;;3.53;;
75386;SDS011;63966;47.914;22.266;2023-09-07T15:07:00;7.43;;;3.58;;
75386;SDS011;63966;47.914;22.266;2023-09-07T15:10:04;9.15;;;3.53;;
75386;SDS011;63966;47.914;22.266;2023-09-07T15:13:08;6.25;;;3.40;;
75386;SDS011;63966;47.914;22.266;2023-09-07T15:16:12;7.82;;;3.80;;
75386;SDS011;63966;47.914;22.266;2023-09-07T15:19:15;6.67;;;3.43;;
75386;SDS011;63966;47.914;22.266;2023-09-07T15:22:19;8.32;;;4.20;;
75386;SDS011;63966;47.914;22.266;2023-09-07T15:25:22;7.22;;;4.50;;
75386;SDS011;63966;47.914;22.266;2023-09-07T15:28:26;8.35;;;3.90;;
75386;SDS011;63966;47.914;22.266;2023-09-07T15:31:29;8.13;;;3.78;;
75386;SDS011;63966;47.914;22.266;2023-09-07T15:34:33;9.23;;;3.63;;
75386;SDS011;63966;47.914;22.266;2023-09-07T15:37:36;7.80;;;4.00;;
75386;SDS011;63966;47.914;22.266;2023-09-07T15:40:40;7.10;;;3.58;;
75386;SDS011;63966;47.914;22.266;2023-09-07T15:43:47;8.10;;;3.85;;
75386;SDS011;63966;47.914;22.266;2023-09-07T15:46:50;7.43;;;3.53;;
75386;SDS011;63966;47.914;22.266;2023-09-07T15:49:54;15.20;;;4.47;;
75386;SDS011;63966;47.914;22.266;2023-09-07T15:52:57;9.70;;;3.78;;
75386;SDS011;63966;47.914;22.266;2023-09-07T15:56:02;11.18;;;3.72;;
75386;SDS011;63966;47.914;22.266;2023-09-07T15:59:06;11.32;;;4.05;;
75386;SDS011;63966;47.914;22.266;2023-09-07T16:02:10;9.80;;;4.03;;
75386;SDS011;63966;47.914;22.266;2023-09-07T16:05:13;11.30;;;3.60;;
75386;SDS011;63966;47.914;22.266;2023-09-07T16:08:17;7.60;;;3.38;;
75386;SDS011;63966;47.914;22.266;2023-09-07T16:11:20;7.55;;;3.45;;
75386;SDS011;63966;47.914;22.266;2023-09-07T16:14:24;7.95;;;3.67;;
75386;SDS011;63966;47.914;22.266;2023-09-07T16:17:27;11.73;;;3.70;;
75386;SDS011;63966;47.914;22.266;2023-09-07T16:20:31;10.97;;;4.03;;
75386;SDS011;63966;47.914;22.266;2023-09-07T16:23:34;8.90;;;3.35;;
75386;SDS011;63966;47.914;22.266;2023-09-07T16:26:38;7.25;;;3.70;;
75386;SDS011;63966;47.914;22.266;2023-09-07T16:29:41;8.43;;;3.75;;
75386;SDS011;63966;47.914;22.266;2023-09-07T16:32:46;9.63;;;4.15;;
75386;SDS011;63966;47.914;22.266;2023-09-07T16:35:50;8.27;;;4.33;;
75386;SDS011;63966;47.914;22.266;2023-09-07T16:38:53;12.40;;;4.72;;
75386;SDS011;63966;47.914;22.266;2023-09-07T16:41:57;8.05;;;4.40;;
75386;SDS011;63966;47.914;22.266;2023-09-07T16:45:01;8.18;;;4.47;;
75386;SDS011;63966;47.914;22.266;2023-09-07T16:48:05;11.03;;;4.70;;
75386;SDS011;63966;47.914;22.266;2023-09-07T16:51:09;11.90;;;4.80;;
75386;SDS011;63966;47.914;22.266;2023-09-07T16:54:12;10.50;;;4.13;;
75386;SDS011;63966;47.914;22.266;2023-09-07T16:57:15;8.82;;;4.22;;
75386;SDS011;63966;47.914;22.266;2023-09-07T17:00:19;9.85;;;4.50;;
75386;SDS011;63966;47.914;22.266;2023-09-07T17:03:23;14.30;;;4.83;;
75386;SDS011;63966;47.914;22.266;2023-09-07T17:06:26;10.20;;;4.23;;
75386;SDS011;63966;47.914;22.266;2023-09-07T17:09:30;8.65;;;4.20;;
75386;SDS011;63966;47.914;22.266;2023-09-07T17:12:34;17.55;;;4.80;;
75386;SDS011;63966;47.914;22.266;2023-09-07T17:15:37;14.00;;;4.97;;
75386;SDS011;63966;47.914;22.266;2023-09-07T17:18:40;12.60;;;4.40;;
75386;SDS011;63966;47.914;22.266;2023-09-07T17:21:44;13.27;;;4.60;;
75386;SDS011;63966;47.914;22.266;2023-09-07T17:24:48;15.55;;;4.90;;
75386;SDS011;63966;47.914;22.266;2023-09-07T17:27:51;14.23;;;5.07;;
75386;SDS011;63966;47.914;22.266;2023-09-07T17:30:54;24.65;;;6.85;;
75386;SDS011;63966;47.914;22.266;2023-09-07T17:33:58;12.83;;;4.90;;
75386;SDS011;63966;47.914;22.266;2023-09-07T17:37:02;16.50;;;4.97;;
75386;SDS011;63966;47.914;22.266;2023-09-07T17:40:06;14.85;;;5.15;;
75386;SDS011;63966;47.914;22.266;2023-09-07T17:43:10;22.25;;;6.35;;
75386;SDS011;63966;47.914;22.266;2023-09-07T17:46:14;15.95;;;5.55;;
75386;SDS011;63966;47.914;22.266;2023-09-07T17:49:17;12.77;;;4.80;;
75386;SDS011;63966;47.914;22.266;2023-09-07T17:52:21;14.90;;;4.37;;
75386;SDS011;63966;47.914;22.266;2023-09-07T17:55:26;13.48;;;5.10;;
75386;SDS011;63966;47.914;22.266;2023-09-07T17:58:29;10.77;;;4.85;;
75386;SDS011;63966;47.914;22.266;2023-09-07T18:01:33;16.27;;;5.22;;
75386;SDS011;63966;47.914;22.266;2023-09-07T18:04:37;14.60;;;5.07;;
75386;SDS011;63966;47.914;22.266;2023-09-07T18:07:40;19.10;;;5.10;;
75386;SDS011;63966;47.914;22.266;2023-09-07T18:10:43;15.23;;;5.10;;
75386;SDS011;63966;47.914;22.266;2023-09-07T18:13:47;14.10;;;4.90;;
75386;SDS011;63966;47.914;22.266;2023-09-07T18:17:01;16.85;;;4.65;;